createdAt,value
2019-05-23T00:01:19.943Z,99.60
2019-05-23T00:03:52.622Z,99.70
2019-05-23T00:06:29.953Z,99.80
2019-05-23T00:08:58.921Z,99.90
2019-05-23T00:11:29.297Z,99.90
2019-05-23T00:13:58.241Z,99.90
2019-05-23T00:16:28.642Z,99.90
2019-05-23T00:18:58.734Z,99.90
2019-05-23T00:21:28.044Z,99.90
2019-05-23T00:23:58.069Z,99.90
2019-05-23T00:26:26.692Z,99.90
2019-05-23T00:29:09.060Z,99.90
2019-05-23T00:31:27.710Z,99.90
2019-05-23T00:33:56.734Z,99.90
2019-05-23T00:36:26.081Z,99.90
2019-05-23T00:38:55.774Z,99.90
2019-05-23T00:41:25.171Z,99.90
2019-05-23T00:43:55.080Z,99.90
2019-05-23T00:46:24.672Z,99.90
2019-05-23T00:48:54.736Z,99.90
2019-05-23T00:51:24.357Z,99.90
2019-05-23T00:53:53.834Z,99.90
2019-05-23T00:56:23.556Z,99.90
2019-05-23T00:58:52.393Z,99.90
2019-05-23T01:01:21.356Z,99.90
2019-05-23T01:03:51.727Z,99.90
2019-05-23T01:06:21.238Z,99.90
2019-05-23T01:08:51.817Z,99.90
2019-05-23T01:11:21.762Z,99.90
2019-05-23T01:13:50.788Z,99.90
2019-05-23T01:16:19.798Z,99.90
2019-05-23T01:18:49.879Z,99.90
2019-05-23T01:21:26.442Z,99.90
2019-05-23T01:23:59.294Z,99.90
2019-05-23T01:26:29.430Z,99.90
2019-05-23T01:28:58.557Z,99.90
2019-05-23T01:31:37.818Z,99.90
2019-05-23T01:34:08.661Z,99.90
2019-05-23T01:36:37.747Z,99.90
2019-05-23T01:39:10.415Z,99.90
2019-05-23T01:41:39.819Z,99.90
2019-05-23T01:44:10.601Z,99.90
2019-05-23T01:46:41.123Z,99.90
2019-05-23T01:49:11.698Z,99.90
2019-05-23T01:51:40.437Z,99.90
2019-05-23T01:54:09.541Z,99.90
2019-05-23T01:56:39.354Z,99.90
2019-05-23T01:59:10.148Z,99.90
2019-05-23T02:01:39.132Z,99.90
2019-05-23T02:04:08.274Z,99.90
2019-05-23T02:06:37.348Z,99.90
2019-05-23T02:09:08.719Z,99.90
2019-05-23T02:11:37.809Z,99.90
2019-05-23T02:14:08.014Z,99.90
2019-05-23T02:16:37.993Z,99.90
2019-05-23T02:19:07.693Z,99.90
2019-05-23T02:21:37.274Z,99.90
2019-05-23T02:24:07.180Z,99.90
2019-05-23T02:26:37.246Z,99.90
2019-05-23T02:29:06.433Z,99.90
2019-05-23T02:31:35.512Z,99.90
2019-05-23T02:34:05.287Z,99.90
2019-05-23T02:36:34.259Z,99.90
2019-05-23T02:39:10.430Z,99.90
2019-05-23T02:41:41.196Z,99.90
2019-05-23T02:44:11.553Z,99.90
2019-05-23T02:46:50.994Z,99.90
2019-05-23T02:49:27.546Z,99.90
2019-05-23T02:51:56.783Z,99.90
2019-05-23T02:54:29.207Z,99.90
2019-05-23T02:56:59.646Z,99.90
2019-05-23T02:59:37.826Z,99.90
2019-05-23T03:02:33.670Z,99.90
2019-05-23T03:05:03.809Z,99.90
2019-05-23T03:07:33.407Z,99.90
2019-05-23T03:10:02.515Z,99.90
2019-05-23T03:12:31.488Z,99.90
2019-05-23T03:15:02.844Z,99.90
2019-05-23T03:17:34.570Z,99.90
2019-05-23T03:20:06.021Z,99.90
2019-05-23T03:22:49.058Z,99.90
2019-05-23T03:25:36.915Z,99.90
2019-05-23T03:28:08.332Z,99.90
2019-05-23T03:30:38.791Z,99.90
2019-05-23T03:33:10.363Z,99.90
2019-05-23T03:35:40.879Z,99.90
2019-05-23T03:38:11.018Z,99.90
2019-05-23T03:40:40.519Z,99.90
2019-05-23T03:43:10.048Z,99.90
2019-05-23T03:45:46.694Z,99.90
2019-05-23T03:48:15.403Z,99.90
2019-05-23T03:50:44.396Z,99.90
2019-05-23T03:53:13.293Z,99.90
2019-05-23T03:55:42.996Z,99.90
2019-05-23T03:58:12.927Z,99.90
2019-05-23T04:00:43.213Z,99.90
2019-05-23T04:03:11.986Z,99.90
2019-05-23T04:05:40.950Z,99.90
2019-05-23T04:08:11.870Z,99.90
2019-05-23T04:10:41.254Z,99.90
2019-05-23T04:13:10.559Z,99.90
2019-05-23T04:15:39.871Z,99.90
2019-05-23T04:18:08.745Z,99.90
2019-05-23T04:20:37.760Z,99.90
2019-05-23T04:23:06.377Z,99.90
2019-05-23T04:25:35.780Z,99.90
2019-05-23T04:28:05.354Z,99.90
2019-05-23T04:30:34.350Z,99.90
2019-05-23T04:33:03.470Z,99.90
2019-05-23T04:35:32.115Z,99.90
2019-05-23T04:38:00.953Z,99.90
2019-05-23T04:40:29.919Z,99.90
2019-05-23T04:42:58.563Z,99.90
2019-05-23T04:45:27.748Z,99.90
2019-05-23T04:47:56.645Z,99.90
2019-05-23T04:50:26.060Z,99.90
2019-05-23T04:52:55.246Z,99.90
2019-05-23T04:55:25.549Z,99.90
2019-05-23T04:57:54.884Z,99.90
2019-05-23T05:00:24.505Z,99.90
2019-05-23T05:02:54.727Z,99.90
2019-05-23T05:05:23.539Z,99.90
2019-05-23T05:07:52.260Z,99.90
2019-05-23T05:10:23.735Z,99.90
2019-05-23T05:12:52.327Z,99.90
2019-05-23T05:15:20.976Z,99.90
2019-05-23T05:17:49.921Z,99.90
2019-05-23T05:20:19.312Z,99.90
2019-05-23T05:22:48.125Z,99.90
2019-05-23T05:25:17.519Z,99.90
2019-05-23T05:27:47.339Z,99.90
2019-05-23T05:30:18.028Z,99.90
2019-05-23T05:32:47.399Z,99.90
2019-05-23T05:35:16.899Z,99.90
2019-05-23T05:37:45.606Z,99.90
2019-05-23T05:40:15.188Z,99.90
2019-05-23T05:42:45.499Z,99.90
2019-05-23T05:45:15.506Z,99.90
2019-05-23T05:47:44.162Z,99.90
2019-05-23T05:50:14.272Z,99.90
2019-05-23T05:52:42.973Z,99.90
2019-05-23T05:55:13.495Z,99.90
2019-05-23T05:57:42.597Z,99.90
2019-05-23T06:00:15.757Z,99.90
2019-05-23T06:03:00.781Z,99.90
2019-05-23T06:05:19.340Z,99.90
2019-05-23T06:07:47.917Z,99.90
2019-05-23T06:10:17.007Z,99.90
2019-05-23T06:12:45.664Z,99.90
2019-05-23T06:15:14.688Z,99.90
2019-05-23T06:17:43.302Z,99.90
2019-05-23T06:20:13.122Z,99.60
2019-05-23T06:22:42.240Z,99.30
2019-05-23T06:25:12.206Z,99.40
2019-05-23T06:27:40.923Z,98.40
2019-05-23T06:30:13.050Z,98.00
2019-05-23T06:32:41.755Z,97.80
2019-05-23T06:35:10.545Z,97.20
2019-05-23T06:37:39.976Z,97.10
2019-05-23T06:40:09.314Z,97.00
2019-05-23T06:42:38.507Z,96.80
2019-05-23T06:45:09.167Z,96.50
2019-05-23T06:47:39.462Z,96.30
2019-05-23T06:50:15.663Z,95.80
2019-05-23T06:52:44.414Z,95.10
2019-05-23T06:55:13.226Z,95.20
2019-05-23T06:57:42.001Z,94.80
2019-05-23T07:00:13.378Z,94.60
2019-05-23T07:02:42.667Z,94.30
2019-05-23T07:05:11.475Z,94.20
2019-05-23T07:07:41.404Z,94.00
2019-05-23T07:10:10.453Z,93.60
2019-05-23T07:12:39.278Z,93.20
2019-05-23T07:15:08.733Z,93.30
2019-05-23T07:17:38.159Z,93.10
2019-05-23T07:20:10.438Z,92.90
2019-05-23T07:22:39.653Z,93.20
2019-05-23T07:25:09.854Z,92.40
2019-05-23T07:27:38.659Z,92.00
2019-05-23T07:30:10.370Z,92.00
2019-05-23T07:32:39.294Z,92.20
2019-05-23T07:35:07.928Z,91.40
2019-05-23T07:37:36.635Z,90.80
2019-05-23T07:40:06.568Z,90.50
2019-05-23T07:42:35.454Z,88.70
2019-05-23T07:45:07.616Z,88.80
2019-05-23T07:47:39.927Z,85.50
2019-05-23T07:50:09.811Z,84.00
2019-05-23T07:52:39.289Z,83.30
2019-05-23T07:55:12.844Z,83.00
2019-05-23T07:57:41.560Z,84.20
2019-05-23T08:00:13.457Z,82.50
2019-05-23T08:02:43.370Z,82.00
2019-05-23T08:05:13.135Z,79.90
2019-05-23T08:07:42.890Z,79.80
2019-05-23T08:10:34.168Z,78.60
2019-05-23T08:13:02.185Z,80.10
2019-05-23T08:15:31.313Z,79.00
2019-05-23T08:17:59.985Z,79.20
2019-05-23T08:20:28.717Z,76.50
2019-05-23T08:22:57.323Z,78.00
2019-05-23T08:25:25.950Z,75.10
2019-05-23T08:27:54.987Z,75.80
2019-05-23T08:30:23.756Z,74.80
2019-05-23T08:32:52.789Z,74.80
2019-05-23T08:35:22.394Z,74.30
2019-05-23T08:37:51.382Z,74.30
2019-05-23T08:40:21.710Z,74.80
2019-05-23T08:42:51.540Z,75.20
2019-05-23T08:45:21.210Z,76.40
2019-05-23T08:47:50.228Z,76.90
2019-05-23T08:50:20.426Z,76.10
2019-05-23T08:52:49.514Z,75.40
2019-05-23T08:55:24.697Z,73.80
2019-05-23T08:57:54.521Z,74.40
2019-05-23T09:00:26.204Z,74.50
2019-05-23T09:02:58.521Z,74.40
2019-05-23T09:05:27.453Z,73.60
2019-05-23T09:07:56.328Z,72.90
2019-05-23T09:10:25.033Z,73.80
2019-05-23T09:12:54.440Z,76.00
2019-05-23T09:15:23.258Z,74.10
2019-05-23T09:17:54.073Z,72.40
2019-05-23T09:20:23.540Z,70.00
2019-05-23T09:22:52.442Z,70.40
2019-05-23T09:25:21.441Z,70.80
2019-05-23T09:27:51.669Z,69.60
2019-05-23T09:30:21.911Z,69.70
2019-05-23T09:32:50.900Z,67.70
2019-05-23T09:35:22.153Z,66.40
2019-05-23T09:37:50.555Z,63.90
2019-05-23T09:40:19.387Z,64.30
2019-05-23T09:42:48.328Z,64.90
2019-05-23T09:45:18.594Z,65.40
2019-05-23T09:47:50.899Z,64.80
2019-05-23T09:50:19.815Z,65.20
2019-05-23T09:52:48.460Z,65.80
2019-05-23T09:55:17.610Z,63.80
2019-05-23T09:57:46.363Z,61.60
2019-05-23T10:00:18.210Z,61.90
2019-05-23T10:02:47.362Z,62.30
2019-05-23T10:05:16.603Z,62.30
2019-05-23T10:07:45.172Z,61.80
2019-05-23T10:10:15.683Z,62.20
2019-05-23T10:12:44.327Z,60.70
2019-05-23T10:15:18.025Z,60.80
2019-05-23T10:17:46.605Z,60.50
2019-05-23T10:20:16.690Z,58.10
2019-05-23T10:22:45.576Z,59.50
2019-05-23T10:25:14.730Z,59.50
2019-05-23T10:27:43.372Z,58.90
2019-05-23T10:30:14.227Z,57.70
2019-05-23T10:32:42.954Z,57.20
2019-05-23T10:35:11.858Z,57.30
2019-05-23T10:37:40.475Z,58.00
2019-05-23T10:40:09.567Z,57.70
2019-05-23T10:42:38.392Z,57.50
2019-05-23T10:45:08.797Z,55.90
2019-05-23T10:47:37.546Z,53.70
2019-05-23T10:50:09.454Z,54.50
2019-05-23T10:52:38.083Z,53.30
2019-05-23T10:55:07.667Z,52.70
2019-05-23T10:57:36.554Z,51.70
2019-05-23T11:00:10.178Z,51.90
2019-05-23T11:02:39.713Z,50.30
2019-05-23T11:05:13.572Z,50.80
2019-05-23T11:07:43.893Z,50.40
2019-05-23T11:10:13.156Z,50.90
2019-05-23T11:12:42.730Z,48.40
2019-05-23T11:15:11.732Z,49.90
2019-05-23T11:17:40.328Z,50.40
2019-05-23T11:20:10.826Z,48.80
2019-05-23T11:22:39.569Z,48.80
2019-05-23T11:25:10.273Z,47.90
2019-05-23T11:27:38.892Z,48.50
2019-05-23T11:30:11.116Z,46.30
2019-05-23T11:32:39.776Z,47.60
2019-05-23T11:35:08.605Z,46.80
2019-05-23T11:37:37.639Z,46.50
2019-05-23T11:40:07.921Z,45.70
2019-05-23T11:42:37.016Z,45.90
2019-05-23T11:45:07.883Z,45.70
2019-05-23T11:47:36.739Z,43.40
2019-05-23T11:50:09.359Z,45.20
2019-05-23T11:52:38.177Z,44.30
2019-05-23T11:55:08.765Z,43.80
2019-05-23T11:57:38.486Z,42.40
2019-05-23T12:00:10.485Z,43.30
2019-05-23T12:02:43.717Z,44.00
2019-05-23T12:05:14.570Z,43.50
2019-05-23T12:07:43.475Z,41.40
2019-05-23T12:10:12.753Z,42.00
2019-05-23T12:12:41.407Z,42.70
2019-05-23T12:15:13.857Z,41.10
2019-05-23T12:17:42.853Z,41.70
2019-05-23T12:20:11.832Z,42.00
2019-05-23T12:22:42.293Z,42.50
2019-05-23T12:25:21.792Z,42.90
2019-05-23T12:27:44.328Z,43.80
2019-05-23T12:30:15.669Z,43.70
2019-05-23T12:32:44.390Z,43.80
2019-05-23T12:35:13.099Z,44.10
2019-05-23T12:37:41.903Z,43.90
2019-05-23T12:40:12.512Z,45.50
2019-05-23T12:42:41.148Z,44.30
2019-05-23T12:45:10.743Z,45.00
2019-05-23T12:47:53.630Z,45.50
2019-05-23T12:50:27.112Z,45.20
2019-05-23T12:52:55.760Z,44.40
2019-05-23T12:55:24.473Z,46.60
2019-05-23T12:57:53.116Z,44.80
2019-05-23T13:00:26.833Z,46.10
2019-05-23T13:02:55.431Z,44.60
2019-05-23T13:05:24.796Z,44.90
2019-05-23T13:07:53.865Z,45.90
2019-05-23T13:10:24.846Z,45.90
2019-05-23T13:12:53.065Z,46.20
2019-05-23T13:15:22.463Z,45.70
2019-05-23T13:17:51.122Z,44.70
2019-05-23T13:20:20.222Z,45.30
2019-05-23T13:22:49.702Z,44.10
2019-05-23T13:25:18.619Z,42.50
2019-05-23T13:27:47.647Z,43.20
2019-05-23T13:30:16.511Z,43.00
2019-05-23T13:32:45.173Z,44.50
2019-05-23T13:35:13.873Z,42.20
2019-05-23T13:37:53.130Z,42.20
2019-05-23T13:40:14.093Z,42.00
2019-05-23T13:42:43.120Z,43.90
2019-05-23T13:45:12.476Z,43.10
2019-05-23T13:47:41.203Z,42.50
2019-05-23T13:50:10.394Z,44.60
2019-05-23T13:52:39.524Z,43.40
2019-05-23T13:55:08.545Z,44.00
2019-05-23T13:57:37.490Z,43.10
2019-05-23T14:00:07.950Z,43.80
2019-05-23T14:02:37.069Z,42.70
2019-05-23T14:05:07.555Z,40.60
2019-05-23T14:07:37.247Z,40.00
2019-05-23T14:10:10.960Z,38.50
2019-05-23T14:12:40.529Z,38.10
2019-05-23T14:15:11.369Z,38.00
2019-05-23T14:17:47.009Z,37.80
2019-05-23T14:20:16.249Z,37.80
2019-05-23T14:22:47.308Z,38.90
2019-05-23T14:25:16.332Z,37.50
2019-05-23T14:27:49.436Z,35.50
2019-05-23T14:30:25.950Z,35.20
2019-05-23T14:33:12.461Z,33.70
2019-05-23T14:35:42.745Z,32.60
2019-05-23T14:38:29.626Z,29.90
2019-05-23T14:40:45.535Z,31.30
2019-05-23T14:43:18.680Z,30.30
2019-05-23T14:46:03.570Z,29.30
2019-05-23T14:48:36.988Z,28.70
2019-05-23T14:51:07.353Z,28.70
2019-05-23T14:53:54.273Z,27.60
2019-05-23T14:56:24.511Z,27.70
2019-05-23T14:58:53.242Z,27.10
2019-05-23T15:01:23.595Z,26.80
2019-05-23T15:03:52.487Z,26.70
2019-05-23T15:06:21.443Z,27.20
2019-05-23T15:08:51.809Z,26.80
2019-05-23T15:11:20.877Z,27.10
2019-05-23T15:13:49.773Z,26.80
2019-05-23T15:16:18.856Z,26.90
2019-05-23T15:18:47.471Z,27.40
2019-05-23T15:24:12.435Z,27.90
2019-05-23T15:26:41.275Z,27.50
2019-05-23T15:29:09.921Z,28.10
2019-05-23T15:31:38.526Z,27.80
2019-05-23T15:34:07.272Z,28.10
2019-05-23T15:36:37.362Z,28.00
2019-05-23T15:39:10.212Z,28.40
2019-05-23T15:41:38.599Z,27.80
2019-05-23T15:44:24.589Z,27.70
2019-05-23T15:46:37.745Z,28.00
2019-05-23T15:49:08.339Z,28.50
2019-05-23T15:51:38.634Z,28.40
2019-05-23T15:54:13.123Z,28.60
2019-05-23T15:56:48.895Z,27.40
2019-05-23T15:59:19.118Z,28.30
2019-05-23T16:01:58.558Z,28.00
2019-05-23T16:04:27.571Z,27.90
2019-05-23T16:06:56.675Z,27.20
2019-05-23T16:09:30.123Z,28.10
2019-05-23T16:11:56.639Z,27.20
2019-05-23T16:14:25.463Z,27.30
2019-05-23T16:16:56.753Z,27.80
2019-05-23T16:19:26.051Z,28.00
2019-05-23T16:21:54.783Z,27.70
2019-05-23T16:24:23.804Z,28.00
2019-05-23T16:26:52.545Z,28.20
2019-05-23T16:29:21.849Z,27.30
2019-05-23T16:31:50.495Z,27.30
2019-05-23T16:34:19.067Z,27.30
2019-05-23T16:36:47.652Z,26.70
2019-05-23T16:39:16.646Z,27.20
2019-05-23T16:41:45.292Z,27.40
2019-05-23T16:44:13.846Z,28.00
2019-05-23T16:46:42.440Z,28.10
2019-05-23T16:49:11.094Z,27.60
2019-05-23T16:51:39.808Z,27.90
2019-05-23T16:54:08.761Z,28.40
2019-05-23T16:56:48.150Z,28.60
2019-05-23T16:59:18.455Z,29.10
2019-05-23T17:02:07.091Z,28.30
2019-05-23T17:04:46.602Z,28.80
2019-05-23T17:07:17.181Z,28.80
2019-05-23T17:10:06.764Z,29.10
2019-05-23T17:12:28.073Z,28.60
2019-05-23T17:15:01.019Z,29.20
2019-05-23T17:18:01.606Z,29.10
2019-05-23T17:20:32.684Z,29.50
2019-05-23T17:23:10.074Z,29.60
2019-05-23T17:25:43.366Z,30.50
2019-05-23T17:28:20.061Z,32.00
2019-05-23T17:30:52.981Z,33.40
2019-05-23T17:33:22.932Z,34.40
2019-05-23T17:35:51.543Z,35.90
2019-05-23T17:38:20.243Z,37.00
2019-05-23T17:40:48.867Z,38.00
2019-05-23T17:43:17.506Z,38.90
2019-05-23T17:45:46.147Z,40.00
2019-05-23T17:48:14.836Z,40.70
2019-05-23T17:50:44.751Z,41.40
2019-05-23T17:53:13.394Z,42.30
2019-05-23T17:55:42.116Z,43.20
2019-05-23T17:58:10.756Z,43.80
2019-05-23T18:00:43.860Z,44.00
2019-05-23T18:03:12.581Z,44.20
2019-05-23T18:05:41.451Z,44.30
2019-05-23T18:08:11.114Z,45.00
2019-05-23T18:10:45.647Z,45.70
2019-05-23T18:13:11.035Z,46.20
2019-05-23T18:15:40.093Z,47.60
2019-05-23T18:18:09.460Z,47.70
2019-05-23T18:20:40.194Z,48.80
2019-05-23T18:23:09.113Z,48.70
2019-05-23T18:25:38.080Z,48.90
2019-05-23T18:28:08.459Z,49.50
2019-05-23T18:30:53.391Z,50.30
2019-05-23T18:33:23.779Z,50.60
2019-05-23T18:35:54.601Z,51.70
2019-05-23T18:38:25.052Z,51.60
2019-05-23T18:41:03.209Z,51.90
2019-05-23T18:43:24.659Z,52.40
2019-05-23T18:45:56.504Z,53.00
2019-05-23T18:48:25.189Z,53.20
2019-05-23T18:50:54.034Z,53.60
2019-05-23T18:53:22.655Z,54.10
2019-05-23T18:55:51.618Z,54.60
2019-05-23T18:58:20.616Z,55.20
2019-05-23T19:00:59.931Z,56.00
2019-05-23T19:03:30.426Z,56.10
2019-05-23T19:06:00.063Z,57.10
2019-05-23T19:08:29.157Z,57.40
2019-05-23T19:10:58.972Z,57.70
2019-05-23T19:13:28.577Z,58.10
2019-05-23T19:15:57.733Z,58.70
2019-05-23T19:18:26.729Z,59.50
2019-05-23T19:20:56.410Z,60.00
2019-05-23T19:23:26.027Z,62.10
2019-05-23T19:25:55.353Z,62.90
2019-05-23T19:28:24.986Z,63.50
2019-05-23T19:30:54.479Z,64.40
2019-05-23T19:33:25.043Z,65.60
2019-05-23T19:35:53.971Z,66.60
2019-05-23T19:38:23.459Z,68.10
2019-05-23T19:40:52.354Z,68.20
2019-05-23T19:43:22.615Z,70.00
2019-05-23T19:45:51.798Z,70.90
2019-05-23T19:48:21.423Z,71.70
2019-05-23T19:50:50.529Z,73.10
2019-05-23T19:53:19.426Z,73.90
2019-05-23T19:55:48.142Z,75.20
2019-05-23T19:58:17.295Z,76.20
2019-05-23T20:00:46.575Z,77.20
2019-05-23T20:03:15.486Z,78.20
2019-05-23T20:05:48.524Z,80.30
2019-05-23T20:08:17.280Z,80.40
2019-05-23T20:10:46.071Z,81.60
2019-05-23T20:13:18.104Z,82.90
2019-05-23T20:15:46.104Z,84.00
2019-05-23T20:18:15.440Z,85.30
2019-05-23T20:20:44.125Z,86.40
2019-05-23T20:23:15.803Z,87.30
2019-05-23T20:25:44.639Z,88.00
2019-05-23T20:28:13.465Z,89.20
2019-05-23T20:30:48.361Z,90.00
2019-05-23T20:33:17.009Z,90.20
2019-05-23T20:35:45.657Z,90.60
2019-05-23T20:38:14.471Z,90.80
2019-05-23T20:40:43.086Z,91.20
2019-05-23T20:43:12.119Z,91.80
2019-05-23T20:45:40.833Z,92.00
2019-05-23T20:48:09.993Z,92.20
2019-05-23T20:50:38.849Z,92.30
2019-05-23T20:53:07.682Z,92.40
2019-05-23T20:55:36.681Z,93.00
2019-05-23T20:58:05.530Z,93.10
2019-05-23T21:00:36.286Z,93.70
2019-05-23T21:03:08.480Z,93.40
2019-05-23T21:05:37.557Z,94.00
2019-05-23T21:08:06.068Z,93.60
2019-05-23T21:10:40.664Z,93.80
2019-05-23T21:13:09.367Z,94.00
2019-05-23T21:15:40.746Z,94.10
2019-05-23T21:18:11.769Z,94.30
2019-05-23T21:20:42.193Z,94.30
2019-05-23T21:23:13.872Z,94.60
2019-05-23T21:25:44.454Z,94.60
2019-05-23T21:28:27.448Z,94.90
2019-05-23T21:30:56.100Z,95.00
2019-05-23T21:33:25.136Z,95.10
2019-05-23T21:35:54.228Z,95.30
2019-05-23T21:38:23.332Z,95.50
2019-05-23T21:40:52.069Z,95.60
2019-05-23T21:43:20.670Z,95.60
2019-05-23T21:45:49.803Z,95.80
2019-05-23T21:48:18.497Z,96.00
2019-05-23T21:50:47.217Z,96.00
2019-05-23T21:53:16.346Z,96.00
2019-05-23T21:55:45.074Z,96.20
2019-05-23T21:58:14.338Z,96.20
2019-05-23T22:01:06.229Z,96.20
2019-05-23T22:03:52.844Z,96.30
2019-05-23T22:06:33.289Z,96.60
2019-05-23T22:09:02.299Z,97.00
2019-05-23T22:11:30.944Z,97.30
2019-05-23T22:13:59.604Z,98.30
2019-05-23T22:16:28.740Z,97.60
2019-05-23T22:18:57.696Z,97.60
2019-05-23T22:21:26.315Z,97.40
2019-05-23T22:23:54.975Z,97.60
2019-05-23T22:26:23.934Z,97.90
2019-05-23T22:28:52.653Z,98.20
2019-05-23T22:31:22.261Z,98.00
2019-05-23T22:34:07.803Z,97.90
2019-05-23T22:36:36.387Z,98.00
2019-05-23T22:39:07.477Z,98.00
2019-05-23T22:41:37.185Z,98.30
2019-05-23T22:44:08.281Z,98.50
2019-05-23T22:46:37.081Z,99.40
2019-05-23T22:49:05.713Z,99.80
2019-05-23T22:51:34.354Z,99.90
2019-05-23T22:54:03.144Z,99.90
2019-05-23T22:56:31.827Z,99.90
2019-05-23T22:59:00.439Z,99.90
2019-05-23T23:01:30.213Z,99.90
2019-05-23T23:03:58.808Z,99.90
2019-05-23T23:06:28.067Z,99.90
2019-05-23T23:08:56.727Z,99.90
2019-05-23T23:11:25.603Z,99.90
2019-05-23T23:13:54.245Z,99.90
2019-05-23T23:16:22.859Z,99.90
2019-05-23T23:18:51.980Z,99.90
2019-05-23T23:21:20.576Z,99.90
2019-05-23T23:23:49.212Z,99.90
2019-05-23T23:26:17.786Z,99.90
2019-05-23T23:28:46.384Z,99.90
2019-05-23T23:31:14.995Z,99.90
2019-05-23T23:33:43.941Z,99.90
2019-05-23T23:36:12.522Z,99.90
2019-05-23T23:38:41.257Z,99.90
2019-05-23T23:41:10.044Z,99.90
2019-05-23T23:43:38.709Z,99.90
2019-05-23T23:46:25.825Z,99.90
2019-05-23T23:49:12.612Z,99.90
2019-05-23T23:51:59.238Z,99.90
2019-05-23T23:54:45.913Z,99.90
2019-05-23T23:57:33.017Z,99.90
